createdAt,value
2019-03-17T00:00:59.673Z,3.40
2019-03-17T00:03:28.982Z,3.03
2019-03-17T00:05:58.312Z,4.10
2019-03-17T00:08:27.741Z,3.17
2019-03-17T00:10:57.040Z,4.30
2019-03-17T00:13:26.412Z,3.73
2019-03-17T00:15:55.738Z,3.37
2019-03-17T00:18:25.099Z,5.60
2019-03-17T00:20:54.448Z,2.47
2019-03-17T00:23:23.864Z,2.53
2019-03-17T00:25:53.254Z,3.43
2019-03-17T00:28:22.589Z,4.33
2019-03-17T00:30:51.903Z,2.97
2019-03-17T00:33:21.327Z,3.83
2019-03-17T00:35:50.789Z,3.23
2019-03-17T00:38:20.105Z,3.00
2019-03-17T00:40:49.466Z,3.70
2019-03-17T00:43:18.813Z,3.10
2019-03-17T00:45:48.225Z,3.33
2019-03-17T00:48:17.553Z,2.50
2019-03-17T00:50:48.997Z,3.07
2019-03-17T00:53:17.902Z,2.80
2019-03-17T00:55:47.292Z,2.83
2019-03-17T00:58:16.611Z,3.53
2019-03-17T01:00:45.939Z,3.60
2019-03-17T01:03:15.314Z,3.90
2019-03-17T01:05:44.631Z,2.57
2019-03-17T01:08:14.027Z,2.00
2019-03-17T01:10:43.436Z,2.37
2019-03-17T01:13:12.799Z,3.60
2019-03-17T01:15:42.126Z,2.93
2019-03-17T01:18:11.422Z,1.67
2019-03-17T01:20:40.776Z,3.13
2019-03-17T01:23:10.143Z,2.80
2019-03-17T01:25:39.507Z,2.90
2019-03-17T01:28:08.848Z,3.53
2019-03-17T01:30:38.210Z,2.33
2019-03-17T01:33:07.640Z,2.10
2019-03-17T01:35:37.056Z,3.00
2019-03-17T01:38:06.372Z,2.67
2019-03-17T01:40:35.721Z,2.23
2019-03-17T01:43:05.114Z,2.67
2019-03-17T01:45:34.470Z,2.97
2019-03-17T01:48:03.796Z,3.90
2019-03-17T01:50:33.294Z,1.90
2019-03-17T01:53:02.683Z,2.50
2019-03-17T01:55:32.080Z,2.60
2019-03-17T01:58:03.529Z,2.77
2019-03-17T02:00:32.880Z,2.93
2019-03-17T02:03:02.307Z,2.13
2019-03-17T02:05:31.718Z,2.83
2019-03-17T02:08:02.882Z,2.77
2019-03-17T02:10:32.210Z,2.10
2019-03-17T02:13:02.050Z,1.73
2019-03-17T02:15:31.372Z,3.17
2019-03-17T02:18:00.738Z,1.70
2019-03-17T02:20:30.130Z,1.87
2019-03-17T02:22:59.572Z,2.33
2019-03-17T02:25:28.916Z,2.63
2019-03-17T02:27:58.233Z,1.80
2019-03-17T02:30:27.584Z,2.57
2019-03-17T02:32:57.028Z,2.47
2019-03-17T02:35:38.660Z,2.47
2019-03-17T02:37:57.504Z,2.13
2019-03-17T02:43:02.290Z,2.73
2019-03-17T02:45:31.724Z,2.23
2019-03-17T02:48:01.095Z,3.30
2019-03-17T02:50:30.475Z,1.57
2019-03-17T02:52:59.799Z,1.53
2019-03-17T02:55:29.205Z,1.27
2019-03-17T02:57:58.561Z,2.33
2019-03-17T03:00:27.947Z,2.53
2019-03-17T03:02:57.379Z,2.67
2019-03-17T03:05:26.682Z,1.53
2019-03-17T03:07:56.101Z,3.17
2019-03-17T03:10:25.483Z,1.47
2019-03-17T03:12:54.831Z,1.93
2019-03-17T03:15:24.226Z,1.57
2019-03-17T03:17:53.668Z,1.43
2019-03-17T03:20:23.050Z,1.77
2019-03-17T03:22:52.957Z,2.40
2019-03-17T03:25:22.341Z,1.70
2019-03-17T03:27:51.742Z,2.53
2019-03-17T03:30:21.189Z,1.90
2019-03-17T03:32:50.634Z,1.03
2019-03-17T03:35:20.078Z,2.67
2019-03-17T03:37:49.454Z,1.30
2019-03-17T03:42:54.058Z,1.47
2019-03-17T03:45:23.477Z,2.00
2019-03-17T03:47:52.871Z,2.47
2019-03-17T03:50:22.245Z,0.80
2019-03-17T03:52:51.581Z,2.37
2019-03-17T03:55:21.037Z,1.13
2019-03-17T03:57:50.427Z,1.43
2019-03-17T04:00:19.808Z,1.43
2019-03-17T04:02:49.279Z,1.33
2019-03-17T04:05:18.653Z,1.13
2019-03-17T04:07:48.078Z,0.90
2019-03-17T04:10:17.379Z,2.37
2019-03-17T04:12:46.745Z,1.33
2019-03-17T04:15:16.087Z,0.90
2019-03-17T04:17:45.418Z,1.83
2019-03-17T04:20:14.861Z,1.80
2019-03-17T04:22:44.224Z,1.93
2019-03-17T04:25:16.715Z,1.77
2019-03-17T04:27:46.098Z,1.27
2019-03-17T04:30:15.936Z,2.57
2019-03-17T04:32:45.358Z,1.80
2019-03-17T04:35:14.714Z,1.53
2019-03-17T04:37:44.017Z,1.47
2019-03-17T04:40:13.391Z,2.07
2019-03-17T04:42:42.723Z,2.63
2019-03-17T04:45:12.161Z,1.20
2019-03-17T04:47:41.456Z,1.63
2019-03-17T04:50:10.842Z,3.07
2019-03-17T04:52:40.160Z,1.03
2019-03-17T04:55:09.591Z,1.10
2019-03-17T04:57:38.947Z,1.13
2019-03-17T05:00:08.540Z,1.67
2019-03-17T05:02:37.905Z,1.57
2019-03-17T05:05:07.531Z,1.37
2019-03-17T05:07:36.985Z,2.47
2019-03-17T05:10:06.646Z,2.47
2019-03-17T05:12:36.020Z,0.90
2019-03-17T05:15:05.787Z,1.40
2019-03-17T05:17:35.158Z,1.27
2019-03-17T05:20:04.905Z,1.23
2019-03-17T05:22:34.215Z,0.93
2019-03-17T05:25:03.626Z,2.03
2019-03-17T05:27:33.012Z,1.93
2019-03-17T05:30:08.168Z,1.83
2019-03-17T05:32:37.611Z,1.03
2019-03-17T05:35:07.196Z,2.07
2019-03-17T05:37:36.524Z,1.60
2019-03-17T05:40:06.165Z,2.23
2019-03-17T05:42:40.323Z,2.10
2019-03-17T05:45:06.582Z,1.00
2019-03-17T05:47:35.877Z,1.07
2019-03-17T05:50:05.991Z,1.83
2019-03-17T05:52:35.342Z,1.27
2019-03-17T05:55:04.840Z,1.33
2019-03-17T05:57:34.235Z,1.40
2019-03-17T06:00:03.625Z,1.87
2019-03-17T06:02:32.985Z,1.93
2019-03-17T06:05:02.315Z,2.03
2019-03-17T06:07:31.710Z,1.40
2019-03-17T06:10:01.046Z,1.10
2019-03-17T06:12:30.413Z,1.50
2019-03-17T06:14:59.799Z,1.20
2019-03-17T06:17:29.114Z,1.23
2019-03-17T06:19:58.456Z,1.33
2019-03-17T06:22:27.867Z,1.30
2019-03-17T06:24:57.230Z,1.03
2019-03-17T06:27:26.529Z,0.90
2019-03-17T06:29:55.868Z,1.40
2019-03-17T06:32:25.187Z,0.97
2019-03-17T06:34:54.598Z,1.13
2019-03-17T06:37:30.864Z,1.40
2019-03-17T06:39:54.978Z,1.17
2019-03-17T06:42:24.314Z,1.13
2019-03-17T06:44:53.668Z,1.67
2019-03-17T06:47:23.061Z,1.27
2019-03-17T06:49:52.427Z,2.00
2019-03-17T06:52:21.828Z,1.93
2019-03-17T06:54:51.236Z,1.83
2019-03-17T06:57:20.546Z,2.73
2019-03-17T06:59:49.984Z,3.43
2019-03-17T07:02:19.334Z,3.07
2019-03-17T07:04:48.764Z,2.57
2019-03-17T07:07:18.096Z,2.30
2019-03-17T07:09:47.454Z,2.43
2019-03-17T07:12:16.850Z,1.50
2019-03-17T07:14:46.233Z,2.83
2019-03-17T07:17:15.632Z,3.00
2019-03-17T07:19:45.027Z,2.47
2019-03-17T07:22:14.405Z,2.17
2019-03-17T07:24:43.777Z,2.27
2019-03-17T07:27:13.148Z,2.30
2019-03-17T07:29:42.499Z,2.50
2019-03-17T07:32:11.873Z,2.80
2019-03-17T07:34:41.319Z,2.97
2019-03-17T07:37:10.694Z,2.53
2019-03-17T07:39:40.071Z,2.53
2019-03-17T07:42:09.501Z,3.30
2019-03-17T07:44:38.841Z,2.70
2019-03-17T07:47:08.282Z,2.57
2019-03-17T07:49:37.668Z,2.37
2019-03-17T07:52:07.034Z,2.73
2019-03-17T07:54:36.456Z,2.40
2019-03-17T07:57:05.903Z,2.53
2019-03-17T07:59:35.279Z,2.27
2019-03-17T08:02:04.694Z,2.50
2019-03-17T08:04:42.405Z,3.20
2019-03-17T08:07:05.139Z,3.13
2019-03-17T08:09:34.461Z,2.53
2019-03-17T08:12:03.839Z,2.33
2019-03-17T08:14:33.136Z,2.33
2019-03-17T08:17:02.505Z,2.47
2019-03-17T08:19:31.844Z,2.53
2019-03-17T08:22:02.283Z,2.47
2019-03-17T08:24:31.604Z,1.73
2019-03-17T08:27:02.329Z,1.93
2019-03-17T08:29:31.635Z,2.57
2019-03-17T08:32:01.947Z,2.00
2019-03-17T08:34:31.297Z,2.63
2019-03-17T08:37:03.831Z,2.37
2019-03-17T08:39:33.171Z,1.60
2019-03-17T08:42:02.608Z,2.30
2019-03-17T08:44:31.933Z,2.47
2019-03-17T08:47:02.355Z,1.60
2019-03-17T08:49:31.757Z,2.17
2019-03-17T08:52:02.238Z,2.17
2019-03-17T08:54:31.560Z,2.40
2019-03-17T08:57:02.427Z,2.20
2019-03-17T08:59:31.750Z,2.20
2019-03-17T09:02:02.356Z,1.93
2019-03-17T09:04:31.749Z,2.07
2019-03-17T09:07:02.504Z,2.30
2019-03-17T09:09:31.929Z,1.57
2019-03-17T09:12:02.338Z,2.03
2019-03-17T09:14:31.735Z,2.47
2019-03-17T09:17:13.703Z,2.10
2019-03-17T09:19:33.440Z,2.27
2019-03-17T09:22:02.877Z,1.97
2019-03-17T09:24:32.194Z,2.00
2019-03-17T09:27:02.430Z,2.70
2019-03-17T09:29:31.761Z,2.13
2019-03-17T09:32:02.431Z,2.10
2019-03-17T09:34:31.877Z,2.10
2019-03-17T09:37:02.893Z,1.73
2019-03-17T09:39:32.223Z,1.50
2019-03-17T09:42:02.427Z,2.00
2019-03-17T09:44:31.761Z,2.20
2019-03-17T09:47:02.375Z,2.23
2019-03-17T09:49:31.771Z,2.27
2019-03-17T09:52:02.405Z,2.10
2019-03-17T09:54:31.765Z,1.90
2019-03-17T09:57:02.439Z,2.10
2019-03-17T09:59:31.829Z,2.17
2019-03-17T10:02:02.465Z,2.07
2019-03-17T10:04:31.782Z,2.13
2019-03-17T10:07:03.729Z,1.73
2019-03-17T10:09:33.078Z,2.37
2019-03-17T10:12:04.337Z,2.57
2019-03-17T10:14:33.656Z,2.07
2019-03-17T10:17:03.047Z,2.53
2019-03-17T10:19:32.432Z,1.87
2019-03-17T10:22:03.421Z,2.13
2019-03-17T10:24:32.765Z,2.53
2019-03-17T10:27:03.059Z,2.37
2019-03-17T10:29:32.428Z,2.07
2019-03-17T10:32:02.831Z,3.00
2019-03-17T10:34:33.422Z,2.30
2019-03-17T10:37:02.915Z,2.20
2019-03-17T10:39:34.649Z,2.93
2019-03-17T10:42:04.055Z,2.83
2019-03-17T10:44:33.529Z,3.00
2019-03-17T10:47:02.923Z,3.20
2019-03-17T10:49:32.313Z,2.67
2019-03-17T10:52:02.812Z,2.50
2019-03-17T10:54:32.214Z,3.03
2019-03-17T10:57:02.818Z,2.23
2019-03-17T10:59:32.127Z,2.53
2019-03-17T11:02:03.299Z,2.47
2019-03-17T11:04:33.567Z,2.73
2019-03-17T11:07:07.754Z,2.70
2019-03-17T11:09:37.094Z,2.53
2019-03-17T11:12:06.497Z,2.20
2019-03-17T11:14:35.813Z,2.77
2019-03-17T11:17:06.157Z,2.43
2019-03-17T11:19:36.457Z,2.83
2019-03-17T11:22:05.888Z,2.50
2019-03-17T11:24:35.306Z,2.97
2019-03-17T11:27:04.661Z,3.40
2019-03-17T11:29:34.001Z,3.43
2019-03-17T11:32:06.336Z,3.00
2019-03-17T11:34:34.509Z,3.20
2019-03-17T11:37:03.953Z,2.87
2019-03-17T11:39:37.932Z,2.87
2019-03-17T11:42:04.454Z,3.40
2019-03-17T11:44:33.839Z,3.07
2019-03-17T11:47:03.217Z,3.30
2019-03-17T11:49:32.617Z,3.30
2019-03-17T11:52:02.917Z,3.17
2019-03-17T11:54:32.259Z,3.57
2019-03-17T11:57:07.892Z,3.00
2019-03-17T11:59:37.245Z,3.47
2019-03-17T12:02:06.709Z,2.67
2019-03-17T12:04:36.136Z,3.27
2019-03-17T12:07:05.561Z,2.57
2019-03-17T12:09:34.917Z,2.83
2019-03-17T12:12:04.378Z,3.07
2019-03-17T12:14:33.681Z,3.17
2019-03-17T12:17:03.419Z,3.33
2019-03-17T12:19:32.981Z,3.03
2019-03-17T12:22:08.922Z,2.43
2019-03-17T12:24:34.487Z,3.07
2019-03-17T12:27:03.846Z,2.83
2019-03-17T12:29:33.243Z,2.83
2019-03-17T12:32:02.633Z,2.53
2019-03-17T12:34:32.009Z,2.73
2019-03-17T12:37:01.363Z,3.23
2019-03-17T12:39:30.713Z,2.57
2019-03-17T12:42:00.100Z,2.00
2019-03-17T12:44:29.464Z,2.90
2019-03-17T12:46:58.849Z,2.93
2019-03-17T12:49:28.215Z,2.23
2019-03-17T12:51:57.553Z,2.27
2019-03-17T12:54:26.925Z,1.77
2019-03-17T12:56:56.335Z,1.70
2019-03-17T12:59:29.109Z,2.20
2019-03-17T13:01:58.475Z,1.50
2019-03-17T13:04:27.937Z,2.20
2019-03-17T13:06:57.299Z,1.23
2019-03-17T13:09:26.797Z,1.77
2019-03-17T13:11:56.203Z,1.43
2019-03-17T13:14:25.611Z,1.50
2019-03-17T13:16:55.011Z,1.40
2019-03-17T13:19:24.474Z,1.43
2019-03-17T13:21:53.897Z,1.53
2019-03-17T13:24:23.343Z,1.57
2019-03-17T13:26:52.691Z,1.43
2019-03-17T13:29:22.157Z,1.30
2019-03-17T13:31:51.568Z,1.50
2019-03-17T13:34:21.488Z,1.60
2019-03-17T13:36:50.903Z,1.43
2019-03-17T13:39:20.358Z,1.10
2019-03-17T13:41:49.799Z,1.20
2019-03-17T13:44:19.188Z,1.80
2019-03-17T13:46:48.624Z,1.20
2019-03-17T13:49:18.048Z,1.60
2019-03-17T13:51:47.419Z,1.00
2019-03-17T13:54:16.759Z,1.23
2019-03-17T13:56:46.154Z,1.33
2019-03-17T13:59:15.535Z,1.20
2019-03-17T14:01:44.926Z,1.40
2019-03-17T14:04:14.283Z,1.67
2019-03-17T14:06:43.671Z,2.10
2019-03-17T14:09:13.085Z,1.57
2019-03-17T14:11:42.486Z,1.67
2019-03-17T14:14:11.856Z,1.57
2019-03-17T14:16:41.328Z,1.40
2019-03-17T14:19:10.762Z,1.47
2019-03-17T14:21:40.103Z,1.90
2019-03-17T14:24:09.471Z,1.87
2019-03-17T14:26:38.807Z,1.80
2019-03-17T14:29:08.189Z,2.07
2019-03-17T14:31:37.527Z,2.60
2019-03-17T14:34:06.984Z,2.07
2019-03-17T14:36:36.399Z,1.50
2019-03-17T14:39:07.207Z,1.80
2019-03-17T14:41:36.570Z,1.67
2019-03-17T14:44:05.974Z,1.00
2019-03-17T14:46:35.816Z,1.50
2019-03-17T14:49:05.388Z,1.47
2019-03-17T14:51:34.852Z,1.53
2019-03-17T14:54:04.386Z,2.30
2019-03-17T14:56:33.722Z,1.93
2019-03-17T14:59:03.132Z,1.10
2019-03-17T15:01:32.517Z,1.87
2019-03-17T15:04:02.809Z,1.70
2019-03-17T15:06:32.444Z,2.07
2019-03-17T15:09:03.459Z,1.40
2019-03-17T15:11:32.813Z,2.00
2019-03-17T15:14:02.275Z,1.40
2019-03-17T15:16:31.618Z,1.53
2019-03-17T15:19:03.335Z,1.50
2019-03-17T15:21:32.808Z,1.53
2019-03-17T15:24:02.782Z,1.63
2019-03-17T15:26:32.206Z,1.53
2019-03-17T15:29:01.844Z,1.77
2019-03-17T15:31:31.232Z,2.23
2019-03-17T15:34:00.727Z,1.57
2019-03-17T15:36:30.151Z,1.60
2019-03-17T15:38:59.541Z,1.43
2019-03-17T15:41:28.844Z,0.90
2019-03-17T15:43:58.202Z,1.23
2019-03-17T15:46:27.545Z,1.60
2019-03-17T15:48:56.903Z,1.13
2019-03-17T15:51:26.202Z,1.17
2019-03-17T15:53:55.637Z,1.57
2019-03-17T15:56:25.041Z,1.23
2019-03-17T15:58:54.453Z,1.50
2019-03-17T16:01:23.777Z,1.60
2019-03-17T16:03:53.192Z,1.37
2019-03-17T16:06:22.591Z,1.60
2019-03-17T16:11:31.137Z,1.70
2019-03-17T16:13:57.989Z,1.33
2019-03-17T16:16:27.437Z,1.40
2019-03-17T16:18:56.811Z,1.77
2019-03-17T16:21:26.127Z,1.20
2019-03-17T16:23:55.578Z,1.30
2019-03-17T16:26:24.965Z,1.67
2019-03-17T16:28:54.361Z,1.80
2019-03-17T16:31:23.697Z,1.73
2019-03-17T16:33:53.269Z,1.20
2019-03-17T16:36:22.651Z,1.77
2019-03-17T16:38:51.999Z,1.17
2019-03-17T16:41:21.377Z,1.40
2019-03-17T16:43:50.705Z,1.70
2019-03-17T16:46:20.150Z,1.07
2019-03-17T16:48:49.565Z,1.70
2019-03-17T16:51:18.929Z,1.10
2019-03-17T16:53:48.247Z,1.53
2019-03-17T16:56:17.641Z,1.77
2019-03-17T16:58:47.208Z,1.33
2019-03-17T17:01:16.642Z,1.33
2019-03-17T17:03:46.106Z,1.70
2019-03-17T17:06:19.906Z,1.30
2019-03-17T17:08:49.255Z,2.17
2019-03-17T17:11:18.606Z,1.50
2019-03-17T17:13:48.083Z,1.77
2019-03-17T17:16:17.537Z,1.60
2019-03-17T17:18:47.073Z,1.43
2019-03-17T17:21:16.717Z,1.23
2019-03-17T17:23:46.102Z,1.93
2019-03-17T17:26:15.473Z,1.80
2019-03-17T17:28:44.956Z,2.63
2019-03-17T17:31:14.390Z,2.20
2019-03-17T17:33:43.847Z,2.00
2019-03-17T17:36:13.326Z,2.10
2019-03-17T17:38:42.825Z,4.20
2019-03-17T17:41:12.385Z,1.47
2019-03-17T17:43:41.782Z,1.60
2019-03-17T17:46:11.283Z,1.97
2019-03-17T17:48:40.681Z,1.67
2019-03-17T17:51:10.141Z,2.30
2019-03-17T17:53:39.482Z,1.77
2019-03-17T17:56:08.851Z,1.10
2019-03-17T17:58:38.281Z,1.50
2019-03-17T18:01:07.669Z,1.40
2019-03-17T18:03:37.066Z,1.33
2019-03-17T18:06:06.457Z,1.07
2019-03-17T18:08:35.908Z,1.53
2019-03-17T18:11:05.651Z,1.57
2019-03-17T18:13:35.084Z,1.47
2019-03-17T18:16:04.554Z,1.60
2019-03-17T18:18:34.278Z,1.60
2019-03-17T18:21:03.661Z,1.20
2019-03-17T18:23:33.325Z,1.30
2019-03-17T18:26:02.661Z,0.97
2019-03-17T18:28:32.022Z,1.43
2019-03-17T18:31:01.341Z,2.37
2019-03-17T18:33:30.713Z,1.40
2019-03-17T18:36:00.048Z,1.00
2019-03-17T18:38:29.511Z,1.10
2019-03-17T18:40:58.935Z,2.10
2019-03-17T18:43:28.345Z,1.57
2019-03-17T18:45:57.721Z,1.53
2019-03-17T18:48:27.193Z,1.77
2019-03-17T18:50:56.526Z,2.00
2019-03-17T18:53:25.903Z,1.03
2019-03-17T18:55:55.255Z,1.67
2019-03-17T18:58:24.757Z,1.53
2019-03-17T19:00:54.132Z,1.43
2019-03-17T19:03:23.491Z,1.07
2019-03-17T19:05:52.915Z,0.93
2019-03-17T19:08:22.395Z,1.30
2019-03-17T19:10:51.797Z,1.50
2019-03-17T19:13:21.148Z,1.20
2019-03-17T19:15:50.479Z,2.07
2019-03-17T19:18:19.926Z,1.43
2019-03-17T19:20:49.375Z,1.07
2019-03-17T19:23:18.789Z,1.13
2019-03-17T19:25:48.132Z,1.73
2019-03-17T19:28:17.487Z,1.57
2019-03-17T19:30:46.797Z,1.17
2019-03-17T19:33:16.177Z,1.50
2019-03-17T19:35:45.565Z,1.30
2019-03-17T19:38:14.977Z,1.23
2019-03-17T19:40:44.338Z,1.10
2019-03-17T19:43:13.835Z,0.90
2019-03-17T19:45:43.237Z,1.20
2019-03-17T19:48:13.596Z,1.40
2019-03-17T19:50:43.015Z,1.23
2019-03-17T19:53:12.510Z,1.33
2019-03-17T19:55:41.898Z,1.80
2019-03-17T19:58:11.291Z,1.13
2019-03-17T20:00:40.801Z,1.17
2019-03-17T20:03:10.276Z,1.83
2019-03-17T20:05:39.670Z,2.13
2019-03-17T20:08:09.037Z,2.00
2019-03-17T20:10:38.441Z,1.73
2019-03-17T20:13:11.909Z,1.30
2019-03-17T20:15:38.852Z,1.20
2019-03-17T20:18:08.247Z,1.50
2019-03-17T20:20:37.771Z,1.40
2019-03-17T20:23:07.241Z,1.83
2019-03-17T20:25:36.629Z,1.30
2019-03-17T20:28:06.033Z,1.30
2019-03-17T20:30:35.418Z,1.30
2019-03-17T20:33:06.310Z,1.87
2019-03-17T20:35:35.786Z,1.20
2019-03-17T20:38:05.197Z,1.47
2019-03-17T20:40:34.514Z,1.43
2019-03-17T20:43:03.907Z,2.03
2019-03-17T20:45:33.362Z,1.90
2019-03-17T20:48:02.781Z,1.87
2019-03-17T20:50:32.153Z,2.70
2019-03-17T20:53:03.070Z,2.73
2019-03-17T20:55:32.442Z,2.63
2019-03-17T20:58:03.219Z,2.33
2019-03-17T21:00:32.618Z,2.03
2019-03-17T21:03:03.471Z,1.93
2019-03-17T21:05:32.920Z,2.00
2019-03-17T21:08:02.374Z,2.03
2019-03-17T21:10:31.850Z,2.40
2019-03-17T21:13:01.206Z,2.20
2019-03-17T21:15:30.610Z,1.60
2019-03-17T21:18:00.010Z,1.50
2019-03-17T21:20:29.508Z,1.10
2019-03-17T21:22:58.968Z,1.03
2019-03-17T21:25:28.388Z,0.77
2019-03-17T21:27:57.768Z,1.10
2019-03-17T21:30:27.336Z,1.20
2019-03-17T21:32:56.737Z,0.83
2019-03-17T21:35:26.150Z,0.90
2019-03-17T21:37:55.585Z,0.70
2019-03-17T21:40:25.050Z,1.13
2019-03-17T21:42:54.584Z,1.03
2019-03-17T21:45:24.058Z,0.83
2019-03-17T21:47:53.472Z,0.77
2019-03-17T21:50:22.925Z,1.00
2019-03-17T21:52:52.492Z,1.07
2019-03-17T21:55:21.929Z,1.00
2019-03-17T21:57:51.247Z,1.40
2019-03-17T22:00:20.689Z,1.00
2019-03-17T22:02:50.023Z,0.93
2019-03-17T22:05:19.454Z,0.97
2019-03-17T22:07:50.878Z,0.97
2019-03-17T22:10:20.006Z,0.87
2019-03-17T22:12:49.455Z,1.30
2019-03-17T22:15:19.012Z,0.80
2019-03-17T22:17:48.418Z,0.77
2019-03-17T22:20:17.920Z,1.43
2019-03-17T22:22:47.350Z,0.50
2019-03-17T22:25:17.822Z,0.67
2019-03-17T22:27:47.155Z,0.83
2019-03-17T22:30:16.601Z,0.97
2019-03-17T22:32:45.957Z,0.60
2019-03-17T22:35:15.494Z,0.63
2019-03-17T22:37:44.914Z,0.57
2019-03-17T22:40:14.394Z,1.00
2019-03-17T22:42:43.867Z,0.70
2019-03-17T22:45:13.431Z,0.53
2019-03-17T22:47:42.974Z,0.40
2019-03-17T22:50:13.066Z,0.60
2019-03-17T22:52:42.458Z,0.50
2019-03-17T22:55:12.521Z,0.83
2019-03-17T22:57:41.972Z,0.90
2019-03-17T23:00:14.248Z,0.50
2019-03-17T23:02:43.656Z,0.50
2019-03-17T23:05:14.922Z,0.50
2019-03-17T23:07:44.260Z,0.50
2019-03-17T23:10:13.927Z,0.47
2019-03-17T23:12:43.262Z,0.40
2019-03-17T23:15:12.791Z,0.80
2019-03-17T23:17:42.234Z,0.63
2019-03-17T23:20:11.908Z,0.30
2019-03-17T23:22:41.275Z,0.70
2019-03-17T23:25:10.755Z,0.40
2019-03-17T23:27:40.116Z,0.40
2019-03-17T23:30:10.538Z,0.30
2019-03-17T23:32:39.973Z,0.40
2019-03-17T23:35:09.387Z,0.30
2019-03-17T23:37:38.878Z,0.40
2019-03-17T23:40:09.664Z,0.40
2019-03-17T23:42:41.987Z,0.40
2019-03-17T23:45:11.910Z,0.40
2019-03-17T23:47:41.290Z,0.30
2019-03-17T23:50:10.654Z,0.33
2019-03-17T23:52:40.002Z,0.40
2019-03-17T23:55:11.168Z,0.40
2019-03-17T23:57:40.601Z,0.30
